createdAt,value
2019-02-09T00:01:27.129Z,10.26
2019-02-09T00:03:57.385Z,10.28
2019-02-09T00:06:27.016Z,10.36
2019-02-09T00:08:56.457Z,10.23
2019-02-09T00:11:25.937Z,10.10
2019-02-09T00:13:55.440Z,10.12
2019-02-09T00:16:25.005Z,10.09
2019-02-09T00:18:54.507Z,10.15
2019-02-09T00:21:24.069Z,10.02
2019-02-09T00:23:53.575Z,10.07
2019-02-09T00:26:23.059Z,10.10
2019-02-09T00:28:52.542Z,10.11
2019-02-09T00:31:22.085Z,10.03
2019-02-09T00:33:51.689Z,9.98
2019-02-09T00:36:21.161Z,9.80
2019-02-09T00:38:50.671Z,9.90
2019-02-09T00:41:20.137Z,9.92
2019-02-09T00:43:49.613Z,9.88
2019-02-09T00:46:19.089Z,9.87
2019-02-09T00:48:48.555Z,9.71
2019-02-09T00:51:18.036Z,9.66
2019-02-09T00:53:48.192Z,9.73
2019-02-09T00:56:17.750Z,9.73
2019-02-09T00:58:47.227Z,9.77
2019-02-09T01:01:16.703Z,9.82
2019-02-09T01:03:46.190Z,9.77
2019-02-09T01:06:15.678Z,9.82
2019-02-09T01:08:45.174Z,9.86
2019-02-09T01:11:14.646Z,9.82
2019-02-09T01:13:44.133Z,9.72
2019-02-09T01:16:13.606Z,9.74
2019-02-09T01:18:43.083Z,9.72
2019-02-09T01:21:12.625Z,9.77
2019-02-09T01:23:42.111Z,9.67
2019-02-09T01:26:11.588Z,9.70
2019-02-09T01:28:41.073Z,9.77
2019-02-09T01:31:10.552Z,9.67
2019-02-09T01:33:40.054Z,9.76
2019-02-09T01:36:09.520Z,9.78
2019-02-09T01:38:38.992Z,9.84
2019-02-09T01:41:08.531Z,9.79
2019-02-09T01:43:38.005Z,9.72
2019-02-09T01:46:07.557Z,9.71
2019-02-09T01:48:37.033Z,9.66
2019-02-09T01:51:06.510Z,9.83
2019-02-09T01:53:35.992Z,9.73
2019-02-09T01:56:05.551Z,9.70
2019-02-09T01:58:35.060Z,9.61
2019-02-09T02:01:05.851Z,9.67
2019-02-09T02:03:35.322Z,9.64
2019-02-09T02:06:04.859Z,9.57
2019-02-09T02:08:34.343Z,9.55
2019-02-09T02:11:04.065Z,9.44
2019-02-09T02:13:33.613Z,9.39
2019-02-09T02:16:03.252Z,9.38
2019-02-09T02:18:32.731Z,9.42
2019-02-09T02:21:02.204Z,9.35
2019-02-09T02:23:31.679Z,9.44
2019-02-09T02:26:01.147Z,9.39
2019-02-09T02:28:31.198Z,9.37
2019-02-09T02:31:00.670Z,9.42
2019-02-09T02:33:30.169Z,9.36
2019-02-09T02:35:59.634Z,9.50
2019-02-09T02:38:29.114Z,9.47
2019-02-09T02:40:58.598Z,9.37
2019-02-09T02:43:28.077Z,9.35
2019-02-09T02:45:57.552Z,9.24
2019-02-09T02:48:27.018Z,9.21
2019-02-09T02:50:56.518Z,9.15
2019-02-09T02:53:25.978Z,9.18
2019-02-09T02:55:55.448Z,9.19
2019-02-09T02:58:24.919Z,9.26
2019-02-09T03:00:54.399Z,9.15
2019-02-09T03:03:23.877Z,9.12
2019-02-09T03:05:53.400Z,9.16
2019-02-09T03:08:22.963Z,9.25
2019-02-09T03:10:52.455Z,9.35
2019-02-09T03:13:21.947Z,9.42
2019-02-09T03:15:51.514Z,9.52
2019-02-09T03:18:20.979Z,9.59
2019-02-09T03:20:50.453Z,9.49
2019-02-09T03:23:19.925Z,9.55
2019-02-09T03:25:49.532Z,9.56
2019-02-09T03:28:19.010Z,9.58
2019-02-09T03:30:49.246Z,9.64
2019-02-09T03:33:18.946Z,9.53
2019-02-09T03:35:48.437Z,9.49
2019-02-09T03:38:17.907Z,9.43
2019-02-09T03:40:47.383Z,9.24
2019-02-09T03:43:16.859Z,9.31
2019-02-09T03:45:46.325Z,9.36
2019-02-09T03:48:15.790Z,9.39
2019-02-09T03:50:45.259Z,9.40
2019-02-09T03:53:14.748Z,9.25
2019-02-09T03:55:44.229Z,9.19
2019-02-09T03:58:13.715Z,9.14
2019-02-09T04:00:43.184Z,9.26
2019-02-09T04:03:12.721Z,9.36
2019-02-09T04:05:42.266Z,9.36
2019-02-09T04:08:12.112Z,9.09
2019-02-09T04:10:41.603Z,9.29
2019-02-09T04:13:11.068Z,9.22
2019-02-09T04:15:40.545Z,9.22
2019-02-09T04:18:10.039Z,9.27
2019-02-09T04:20:39.532Z,9.38
2019-02-09T04:23:09.032Z,9.28
2019-02-09T04:25:38.907Z,9.37
2019-02-09T04:28:08.389Z,9.46
2019-02-09T04:30:37.869Z,9.44
2019-02-09T04:33:07.352Z,9.46
2019-02-09T04:35:37.706Z,9.46
2019-02-09T04:38:07.174Z,9.51
2019-02-09T04:40:36.659Z,9.54
2019-02-09T04:43:06.199Z,9.47
2019-02-09T04:45:35.678Z,9.54
2019-02-09T04:48:05.263Z,9.50
2019-02-09T04:50:34.739Z,9.52
2019-02-09T04:53:04.287Z,9.57
2019-02-09T04:55:33.769Z,9.57
2019-02-09T04:58:03.246Z,9.55
2019-02-09T05:00:32.797Z,9.64
2019-02-09T05:03:02.282Z,9.53
2019-02-09T05:05:31.925Z,9.54
2019-02-09T05:08:01.478Z,9.41
2019-02-09T05:10:30.961Z,9.38
2019-02-09T05:13:00.431Z,9.50
2019-02-09T05:15:29.913Z,9.42
2019-02-09T05:17:59.476Z,9.43
2019-02-09T05:20:29.012Z,9.46
2019-02-09T05:22:58.473Z,9.36
2019-02-09T05:25:28.054Z,9.49
2019-02-09T05:27:57.584Z,9.36
2019-02-09T05:30:28.170Z,9.27
2019-02-09T05:32:57.937Z,9.30
2019-02-09T05:35:27.514Z,9.30
2019-02-09T05:37:57.077Z,9.30
2019-02-09T05:40:28.534Z,9.24
2019-02-09T05:42:58.031Z,9.42
2019-02-09T05:45:28.597Z,9.42
2019-02-09T05:47:58.229Z,9.49
2019-02-09T05:50:27.816Z,9.57
2019-02-09T05:52:57.349Z,9.58
2019-02-09T05:55:26.831Z,9.51
2019-02-09T05:57:56.297Z,9.39
2019-02-09T06:00:36.561Z,9.57
2019-02-09T06:03:06.093Z,9.58
2019-02-09T06:05:35.606Z,9.60
2019-02-09T06:08:05.264Z,9.54
2019-02-09T06:10:34.820Z,9.66
2019-02-09T06:13:05.059Z,9.72
2019-02-09T06:15:34.604Z,9.69
2019-02-09T06:18:04.343Z,9.64
2019-02-09T06:20:33.872Z,9.71
2019-02-09T06:23:03.400Z,9.68
2019-02-09T06:25:32.875Z,9.68
2019-02-09T06:28:02.375Z,9.63
2019-02-09T06:30:31.945Z,9.79
2019-02-09T06:33:01.524Z,9.72
2019-02-09T06:35:31.100Z,9.66
2019-02-09T06:38:00.585Z,9.71
2019-02-09T06:40:30.066Z,9.64
2019-02-09T06:42:59.991Z,9.62
2019-02-09T06:45:30.438Z,9.32
2019-02-09T06:48:19.262Z,9.46
2019-02-09T06:50:48.745Z,9.42
2019-02-09T06:53:18.228Z,9.20
2019-02-09T06:55:47.720Z,9.28
2019-02-09T06:58:17.218Z,9.38
2019-02-09T07:00:46.725Z,9.41
2019-02-09T07:03:16.230Z,9.57
2019-02-09T07:05:45.779Z,9.64
2019-02-09T07:08:16.736Z,9.68
2019-02-09T07:10:46.415Z,9.47
2019-02-09T07:13:15.905Z,9.62
2019-02-09T07:15:45.367Z,9.52
2019-02-09T07:18:14.857Z,9.51
2019-02-09T07:20:45.380Z,9.57
2019-02-09T07:23:14.945Z,9.53
2019-02-09T07:25:44.434Z,9.64
2019-02-09T07:28:13.925Z,9.60
2019-02-09T07:30:43.462Z,9.61
2019-02-09T07:33:13.177Z,9.42
2019-02-09T07:35:43.846Z,9.65
2019-02-09T07:38:13.506Z,9.56
2019-02-09T07:40:42.987Z,9.57
2019-02-09T07:43:12.486Z,9.63
2019-02-09T07:45:41.972Z,9.58
2019-02-09T07:48:11.465Z,9.52
2019-02-09T07:50:40.929Z,9.67
2019-02-09T07:53:10.414Z,9.50
2019-02-09T07:55:40.038Z,9.69
2019-02-09T07:58:09.482Z,9.84
2019-02-09T08:00:38.975Z,9.72
2019-02-09T08:03:08.453Z,9.79
2019-02-09T08:05:38.011Z,9.81
2019-02-09T08:08:07.696Z,9.85
2019-02-09T08:10:37.240Z,9.98
2019-02-09T08:13:07.103Z,9.92
2019-02-09T08:15:37.977Z,9.85
2019-02-09T08:18:07.630Z,9.85
2019-02-09T08:20:38.089Z,9.77
2019-02-09T08:23:07.739Z,9.96
2019-02-09T08:25:39.453Z,9.93
2019-02-09T08:28:09.523Z,9.80
2019-02-09T08:30:43.221Z,9.97
2019-02-09T08:33:13.060Z,9.88
2019-02-09T08:35:43.433Z,9.88
2019-02-09T08:38:14.033Z,9.73
2019-02-09T08:40:43.593Z,10.14
2019-02-09T08:43:13.304Z,10.18
2019-02-09T08:45:42.849Z,10.02
2019-02-09T08:48:12.431Z,10.23
2019-02-09T08:50:45.543Z,10.29
2019-02-09T08:53:15.103Z,10.05
2019-02-09T08:55:44.592Z,9.88
2019-02-09T08:58:14.088Z,10.22
2019-02-09T09:00:43.566Z,9.99
2019-02-09T09:03:13.059Z,10.25
2019-02-09T09:05:42.539Z,9.97
2019-02-09T09:08:12.061Z,9.89
2019-02-09T09:10:41.562Z,10.29
2019-02-09T09:13:11.073Z,10.39
2019-02-09T09:15:43.173Z,10.32
2019-02-09T09:18:12.702Z,10.36
2019-02-09T09:20:45.201Z,10.23
2019-02-09T09:23:14.711Z,10.16
2019-02-09T09:25:44.263Z,10.01
2019-02-09T09:28:13.829Z,10.12
2019-02-09T09:30:43.343Z,10.27
2019-02-09T09:33:12.821Z,10.21
2019-02-09T09:35:42.386Z,10.12
2019-02-09T09:38:11.943Z,10.31
2019-02-09T09:40:42.420Z,10.21
2019-02-09T09:43:12.157Z,10.10
2019-02-09T09:45:42.071Z,10.22
2019-02-09T09:48:16.038Z,10.27
2019-02-09T09:50:45.528Z,10.22
2019-02-09T09:53:15.011Z,10.16
2019-02-09T09:55:44.568Z,10.00
2019-02-09T09:58:14.315Z,10.27
2019-02-09T10:00:43.948Z,10.38
2019-02-09T10:03:13.493Z,10.20
2019-02-09T10:05:43.040Z,10.35
2019-02-09T10:08:12.550Z,10.24
2019-02-09T10:10:42.042Z,10.19
2019-02-09T10:13:12.066Z,10.44
2019-02-09T10:15:41.597Z,10.46
2019-02-09T10:18:11.095Z,10.52
2019-02-09T10:20:40.609Z,10.68
2019-02-09T10:23:10.231Z,10.73
2019-02-09T10:25:39.867Z,10.78
2019-02-09T10:28:09.353Z,10.67
2019-02-09T10:30:38.926Z,10.83
2019-02-09T10:33:08.418Z,10.89
2019-02-09T10:35:37.926Z,11.15
2019-02-09T10:38:07.434Z,10.99
2019-02-09T10:40:37.028Z,10.96
2019-02-09T10:43:06.849Z,11.05
2019-02-09T10:45:36.426Z,10.91
2019-02-09T10:48:06.862Z,11.07
2019-02-09T10:50:44.034Z,11.14
2019-02-09T10:53:13.764Z,11.17
2019-02-09T10:55:43.357Z,11.15
2019-02-09T10:58:12.839Z,11.24
2019-02-09T11:00:48.102Z,10.95
2019-02-09T11:03:17.689Z,11.14
2019-02-09T11:05:47.293Z,11.01
2019-02-09T11:08:17.065Z,11.22
2019-02-09T11:10:46.933Z,11.33
2019-02-09T11:13:16.505Z,11.33
2019-02-09T11:15:46.083Z,11.13
2019-02-09T11:18:15.578Z,11.15
2019-02-09T11:20:45.152Z,11.04
2019-02-09T11:23:14.833Z,10.90
2019-02-09T11:25:44.353Z,10.99
2019-02-09T11:28:13.862Z,11.19
2019-02-09T11:30:43.373Z,11.16
2019-02-09T11:33:12.850Z,11.13
2019-02-09T11:35:42.359Z,11.22
2019-02-09T11:38:11.855Z,11.27
2019-02-09T11:40:41.361Z,11.08
2019-02-09T11:43:10.875Z,11.17
2019-02-09T11:45:40.484Z,11.17
2019-02-09T11:48:10.195Z,11.33
2019-02-09T11:50:39.689Z,11.28
2019-02-09T11:53:09.275Z,11.35
2019-02-09T11:55:39.858Z,11.36
2019-02-09T11:58:09.429Z,11.52
2019-02-09T12:00:42.974Z,11.58
2019-02-09T12:03:14.928Z,11.44
2019-02-09T12:05:43.688Z,11.52
2019-02-09T12:08:13.267Z,11.39
2019-02-09T12:10:42.772Z,11.49
2019-02-09T12:13:12.336Z,11.51
2019-02-09T12:15:42.294Z,11.54
2019-02-09T12:18:12.888Z,11.59
2019-02-09T12:20:42.385Z,11.56
2019-02-09T12:23:11.876Z,11.57
2019-02-09T12:25:41.371Z,11.66
2019-02-09T12:28:10.938Z,11.58
2019-02-09T12:30:40.581Z,11.41
2019-02-09T12:33:10.642Z,11.25
2019-02-09T12:35:40.788Z,11.46
2019-02-09T12:38:10.427Z,11.30
2019-02-09T12:40:40.182Z,11.16
2019-02-09T12:43:09.745Z,11.62
2019-02-09T12:45:39.324Z,11.80
2019-02-09T12:48:09.019Z,11.56
2019-02-09T12:50:38.672Z,11.59
2019-02-09T12:53:08.371Z,11.62
2019-02-09T12:55:37.879Z,11.66
2019-02-09T12:58:08.280Z,11.39
2019-02-09T13:00:38.124Z,11.72
2019-02-09T13:03:15.928Z,11.67
2019-02-09T13:05:45.497Z,11.46
2019-02-09T13:08:15.070Z,11.38
2019-02-09T13:10:44.600Z,11.74
2019-02-09T13:13:14.176Z,11.77
2019-02-09T13:15:43.686Z,11.63
2019-02-09T13:18:13.195Z,11.75
2019-02-09T13:20:43.476Z,11.88
2019-02-09T13:23:13.057Z,12.03
2019-02-09T13:25:42.542Z,11.90
2019-02-09T13:28:12.026Z,11.78
2019-02-09T13:30:41.818Z,11.90
2019-02-09T13:33:11.322Z,11.65
2019-02-09T13:35:41.059Z,11.51
2019-02-09T13:38:10.628Z,11.44
2019-02-09T13:40:40.114Z,11.72
2019-02-09T13:43:09.607Z,11.98
2019-02-09T13:45:41.837Z,11.98
2019-02-09T13:48:11.465Z,11.86
2019-02-09T13:50:41.050Z,11.76
2019-02-09T13:53:10.711Z,11.93
2019-02-09T13:55:40.221Z,11.78
2019-02-09T13:58:09.722Z,12.06
2019-02-09T14:00:39.291Z,11.74
2019-02-09T14:03:09.041Z,11.69
2019-02-09T14:05:38.635Z,11.57
2019-02-09T14:08:08.852Z,11.39
2019-02-09T14:10:38.333Z,11.62
2019-02-09T14:13:14.233Z,11.77
2019-02-09T14:15:39.112Z,11.57
2019-02-09T14:18:09.693Z,11.62
2019-02-09T14:20:39.541Z,11.84
2019-02-09T14:23:08.967Z,11.48
2019-02-09T14:25:38.446Z,11.38
2019-02-09T14:28:08.491Z,11.75
2019-02-09T14:30:38.220Z,11.49
2019-02-09T14:33:09.476Z,10.62
2019-02-09T14:35:40.010Z,10.55
2019-02-09T14:38:09.709Z,10.55
2019-02-09T14:40:39.274Z,10.74
2019-02-09T14:43:09.483Z,10.57
2019-02-09T14:45:41.024Z,10.70
2019-02-09T14:48:10.604Z,10.81
2019-02-09T14:50:40.174Z,10.76
2019-02-09T14:53:09.741Z,10.97
2019-02-09T14:55:39.522Z,10.92
2019-02-09T14:58:09.168Z,11.21
2019-02-09T15:00:44.162Z,10.74
2019-02-09T15:03:14.307Z,10.89
2019-02-09T15:05:43.827Z,10.89
2019-02-09T15:08:13.368Z,11.12
2019-02-09T15:10:42.939Z,11.16
2019-02-09T15:13:13.395Z,11.09
2019-02-09T15:15:49.524Z,11.27
2019-02-09T15:18:19.306Z,10.97
2019-02-09T15:20:52.117Z,11.23
2019-02-09T15:23:21.676Z,10.74
2019-02-09T15:25:51.238Z,11.00
2019-02-09T15:28:20.814Z,10.87
2019-02-09T15:30:50.364Z,11.23
2019-02-09T15:33:19.889Z,10.94
2019-02-09T15:35:49.536Z,11.02
2019-02-09T15:38:21.131Z,11.23
2019-02-09T15:40:50.745Z,11.06
2019-02-09T15:43:20.330Z,10.98
2019-02-09T15:45:49.833Z,10.95
2019-02-09T15:48:19.353Z,11.01
2019-02-09T15:50:49.029Z,11.16
2019-02-09T15:53:18.588Z,11.30
2019-02-09T15:55:48.177Z,11.21
2019-02-09T15:58:17.664Z,10.90
2019-02-09T16:00:48.243Z,10.97
2019-02-09T16:03:17.757Z,10.93
2019-02-09T16:05:47.339Z,11.01
2019-02-09T16:08:16.839Z,11.09
2019-02-09T16:10:46.336Z,10.97
2019-02-09T16:13:15.842Z,11.04
2019-02-09T16:15:45.366Z,10.95
2019-02-09T16:18:14.956Z,11.04
2019-02-09T16:20:44.540Z,10.98
2019-02-09T16:23:14.068Z,10.81
2019-02-09T16:25:43.674Z,11.00
2019-02-09T16:28:13.231Z,10.92
2019-02-09T16:30:42.845Z,10.72
2019-02-09T16:33:12.379Z,10.90
2019-02-09T16:35:41.888Z,10.90
2019-02-09T16:38:11.464Z,10.93
2019-02-09T16:40:40.954Z,10.81
2019-02-09T16:43:10.499Z,10.79
2019-02-09T16:45:41.391Z,10.88
2019-02-09T16:48:10.997Z,10.61
2019-02-09T16:50:40.494Z,10.86
2019-02-09T16:53:09.984Z,10.91
2019-02-09T16:55:39.477Z,10.95
2019-02-09T16:58:08.960Z,10.70
2019-02-09T17:00:39.685Z,10.82
2019-02-09T17:03:10.090Z,10.83
2019-02-09T17:05:39.820Z,10.66
2019-02-09T17:08:09.486Z,10.84
2019-02-09T17:10:39.077Z,10.60
2019-02-09T17:13:08.662Z,10.81
2019-02-09T17:15:39.420Z,10.40
2019-02-09T17:18:09.331Z,10.62
2019-02-09T17:20:38.820Z,10.68
2019-02-09T17:23:08.512Z,10.75
2019-02-09T17:25:38.095Z,10.69
2019-02-09T17:28:07.975Z,10.65
2019-02-09T17:30:37.931Z,10.64
2019-02-09T17:33:07.801Z,10.82
2019-02-09T17:35:40.352Z,10.83
2019-02-09T17:38:08.620Z,10.48
2019-02-09T17:40:46.427Z,10.67
2019-02-09T17:43:15.919Z,10.78
2019-02-09T17:45:54.232Z,10.72
2019-02-09T17:48:25.240Z,10.66
2019-02-09T17:50:54.728Z,10.71
2019-02-09T17:53:24.219Z,10.61
2019-02-09T17:55:53.714Z,10.79
2019-02-09T17:58:23.263Z,10.84
2019-02-09T18:00:56.945Z,10.59
2019-02-09T18:03:26.447Z,10.35
2019-02-09T18:05:55.929Z,10.57
2019-02-09T18:08:25.486Z,10.32
2019-02-09T18:10:55.006Z,10.44
2019-02-09T18:13:24.522Z,10.48
2019-02-09T18:15:54.018Z,10.50
2019-02-09T18:18:23.519Z,10.25
2019-02-09T18:20:52.993Z,10.49
2019-02-09T18:23:22.501Z,10.32
2019-02-09T18:25:51.973Z,10.43
2019-02-09T18:28:21.481Z,10.71
2019-02-09T18:30:50.987Z,10.60
2019-02-09T18:33:20.575Z,10.73
2019-02-09T18:35:50.097Z,10.84
2019-02-09T18:38:19.585Z,10.57
2019-02-09T18:40:49.149Z,10.53
2019-02-09T18:43:18.622Z,10.38
2019-02-09T18:45:48.097Z,10.61
2019-02-09T18:48:18.085Z,10.43
2019-02-09T18:50:48.539Z,10.52
2019-02-09T18:53:18.050Z,10.39
2019-02-09T18:55:47.629Z,10.48
2019-02-09T18:58:17.178Z,10.51
2019-02-09T19:00:46.665Z,10.27
2019-02-09T19:03:16.229Z,10.51
2019-02-09T19:05:45.726Z,10.37
2019-02-09T19:08:15.221Z,10.33
2019-02-09T19:10:44.723Z,10.53
2019-02-09T19:13:14.242Z,10.34
2019-02-09T19:15:43.756Z,10.50
2019-02-09T19:18:13.259Z,10.56
2019-02-09T19:20:45.976Z,10.66
2019-02-09T19:23:15.509Z,10.41
2019-02-09T19:25:45.000Z,10.56
2019-02-09T19:28:14.501Z,10.48
2019-02-09T19:30:43.973Z,10.52
2019-02-09T19:33:13.506Z,10.49
2019-02-09T19:35:43.030Z,10.46
2019-02-09T19:38:12.600Z,10.40
2019-02-09T19:40:42.121Z,10.43
2019-02-09T19:43:11.728Z,10.49
2019-02-09T19:45:41.218Z,10.32
2019-02-09T19:48:11.430Z,10.32
2019-02-09T19:50:41.163Z,10.59
2019-02-09T19:53:10.747Z,10.42
2019-02-09T19:55:40.319Z,10.54
2019-02-09T19:58:09.892Z,10.45
2019-02-09T20:00:41.428Z,10.55
2019-02-09T20:03:10.954Z,10.66
2019-02-09T20:05:40.515Z,10.68
2019-02-09T20:08:10.551Z,10.66
2019-02-09T20:10:40.061Z,10.44
2019-02-09T20:13:10.140Z,10.33
2019-02-09T20:15:41.452Z,10.45
2019-02-09T20:18:11.028Z,10.51
2019-02-09T20:20:46.751Z,10.53
2019-02-09T20:23:12.395Z,10.34
2019-02-09T20:25:42.856Z,10.25
2019-02-09T20:28:12.449Z,10.18
2019-02-09T20:30:41.944Z,9.90
2019-02-09T20:33:11.503Z,10.19
2019-02-09T20:35:41.085Z,10.26
2019-02-09T20:38:11.016Z,10.09
2019-02-09T20:40:52.990Z,10.13
2019-02-09T20:43:22.572Z,10.23
2019-02-09T20:45:52.084Z,10.19
2019-02-09T20:48:21.632Z,10.18
2019-02-09T20:50:51.151Z,10.23
2019-02-09T20:53:21.471Z,9.92
2019-02-09T20:55:50.968Z,9.92
2019-02-09T20:58:20.551Z,10.22
2019-02-09T21:00:50.147Z,10.21
2019-02-09T21:03:19.646Z,10.20
2019-02-09T21:05:50.515Z,10.05
2019-02-09T21:08:22.053Z,9.78
2019-02-09T21:10:51.598Z,10.00
2019-02-09T21:13:21.088Z,10.22
2019-02-09T21:15:50.590Z,9.88
2019-02-09T21:18:20.071Z,10.12
2019-02-09T21:20:49.606Z,10.13
2019-02-09T21:23:19.096Z,10.13
2019-02-09T21:25:48.619Z,10.17
2019-02-09T21:28:18.135Z,10.17
2019-02-09T21:30:47.663Z,9.98
2019-02-09T21:33:17.169Z,9.85
2019-02-09T21:35:46.713Z,9.78
2019-02-09T21:38:16.199Z,9.62
2019-02-09T21:40:45.772Z,9.90
2019-02-09T21:43:15.250Z,9.92
2019-02-09T21:45:45.672Z,9.99
2019-02-09T21:48:15.330Z,9.99
2019-02-09T21:50:45.813Z,10.02
2019-02-09T21:53:15.391Z,9.90
2019-02-09T21:55:44.860Z,9.86
2019-02-09T21:58:14.361Z,10.11
2019-02-09T22:00:44.311Z,9.97
2019-02-09T22:03:14.219Z,10.11
2019-02-09T22:05:51.509Z,10.16
2019-02-09T22:08:19.609Z,10.05
2019-02-09T22:10:47.750Z,9.97
2019-02-09T22:13:17.323Z,9.98
2019-02-09T22:15:46.857Z,9.95
2019-02-09T22:18:16.313Z,10.10
2019-02-09T22:20:52.473Z,9.84
2019-02-09T22:23:17.058Z,9.98
2019-02-09T22:25:46.554Z,9.99
2019-02-09T22:28:16.081Z,10.04
2019-02-09T22:30:45.681Z,10.20
2019-02-09T22:33:23.980Z,10.26
2019-02-09T22:35:46.465Z,10.34
2019-02-09T22:38:15.928Z,10.28
2019-02-09T22:40:45.477Z,10.28
2019-02-09T22:43:14.970Z,10.22
2019-02-09T22:45:44.522Z,10.23
2019-02-09T22:48:14.007Z,10.39
2019-02-09T22:50:45.184Z,10.22
2019-02-09T22:53:14.776Z,10.30
2019-02-09T22:55:44.495Z,10.28
2019-02-09T22:58:13.999Z,10.37
2019-02-09T23:01:16.941Z,10.47
2019-02-09T23:04:11.220Z,10.42
2019-02-09T23:07:02.509Z,10.42
2019-02-09T23:09:33.121Z,10.22
2019-02-09T23:12:02.710Z,10.25
2019-02-09T23:14:33.190Z,10.31
2019-02-09T23:17:02.739Z,10.28
2019-02-09T23:19:32.259Z,10.46
2019-02-09T23:22:01.787Z,10.56
2019-02-09T23:24:31.277Z,10.49
2019-02-09T23:27:00.776Z,10.51
2019-02-09T23:29:30.276Z,10.35
2019-02-09T23:31:59.923Z,10.48
2019-02-09T23:34:29.409Z,10.53
2019-02-09T23:36:59.005Z,10.51
2019-02-09T23:39:28.519Z,10.69
2019-02-09T23:41:58.045Z,10.66
2019-02-09T23:44:27.578Z,10.71
2019-02-09T23:46:57.103Z,10.67
2019-02-09T23:49:26.591Z,10.67
2019-02-09T23:51:56.148Z,10.82
2019-02-09T23:54:25.653Z,10.82
2019-02-09T23:56:55.162Z,10.82
2019-02-09T23:59:24.650Z,10.77
